sensor_id;sensor_type;location;lat;lon;timestamp;P1;durP1;ratioP1;P2;durP2;ratioP2
59308;SDS011;48433;53.016;-2.260;2023-08-30T00:00:31;12.43;;;3.05;;
59308;SDS011;48433;53.016;-2.260;2023-08-30T00:02:58;14.65;;;3.70;;
59308;SDS011;48433;53.016;-2.260;2023-08-30T00:05:27;10.93;;;3.35;;
59308;SDS011;48433;53.016;-2.260;2023-08-30T00:07:55;13.85;;;3.88;;
59308;SDS011;48433;53.016;-2.260;2023-08-30T00:10:23;14.88;;;4.35;;
59308;SDS011;48433;53.016;-2.260;2023-08-30T00:12:51;15.65;;;3.53;;
59308;SDS011;48433;53.016;-2.260;2023-08-30T00:15:19;12.20;;;3.97;;
59308;SDS011;48433;53.016;-2.260;2023-08-30T00:17:46;14.23;;;3.90;;
59308;SDS011;48433;53.016;-2.260;2023-08-30T00:20:15;13.63;;;3.30;;
59308;SDS011;48433;53.016;-2.260;2023-08-30T00:22:42;11.18;;;3.13;;
59308;SDS011;48433;53.016;-2.260;2023-08-30T00:25:10;11.45;;;3.10;;
59308;SDS011;48433;53.016;-2.260;2023-08-30T00:27:37;10.80;;;3.20;;
59308;SDS011;48433;53.016;-2.260;2023-08-30T00:30:05;11.65;;;3.40;;
59308;SDS011;48433;53.016;-2.260;2023-08-30T00:32:35;12.63;;;4.13;;
59308;SDS011;48433;53.016;-2.260;2023-08-30T00:35:03;10.23;;;3.35;;
59308;SDS011;48433;53.016;-2.260;2023-08-30T00:37:31;11.45;;;3.63;;
59308;SDS011;48433;53.016;-2.260;2023-08-30T00:39:58;11.65;;;3.00;;
59308;SDS011;48433;53.016;-2.260;2023-08-30T00:42:27;16.90;;;3.88;;
59308;SDS011;48433;53.016;-2.260;2023-08-30T00:44:54;9.48;;;3.47;;
59308;SDS011;48433;53.016;-2.260;2023-08-30T00:47:22;13.10;;;3.38;;
59308;SDS011;48433;53.016;-2.260;2023-08-30T00:49:50;14.43;;;3.58;;
59308;SDS011;48433;53.016;-2.260;2023-08-30T00:52:18;12.60;;;3.53;;
59308;SDS011;48433;53.016;-2.260;2023-08-30T00:54:46;11.68;;;3.40;;
59308;SDS011;48433;53.016;-2.260;2023-08-30T00:57:14;10.15;;;3.10;;
59308;SDS011;48433;53.016;-2.260;2023-08-30T00:59:42;16.77;;;4.50;;
59308;SDS011;48433;53.016;-2.260;2023-08-30T01:02:10;9.90;;;2.83;;
59308;SDS011;48433;53.016;-2.260;2023-08-30T01:04:37;13.05;;;3.03;;
59308;SDS011;48433;53.016;-2.260;2023-08-30T01:07:05;14.68;;;4.03;;
59308;SDS011;48433;53.016;-2.260;2023-08-30T01:09:33;13.55;;;3.58;;
59308;SDS011;48433;53.016;-2.260;2023-08-30T01:12:05;12.85;;;3.60;;
59308;SDS011;48433;53.016;-2.260;2023-08-30T01:17:33;14.30;;;3.63;;
59308;SDS011;48433;53.016;-2.260;2023-08-30T01:20:05;12.60;;;3.08;;
59308;SDS011;48433;53.016;-2.260;2023-08-30T01:22:53;11.73;;;3.83;;
59308;SDS011;48433;53.016;-2.260;2023-08-30T01:28:31;12.07;;;3.60;;
59308;SDS011;48433;53.016;-2.260;2023-08-30T01:31:00;15.15;;;4.20;;
59308;SDS011;48433;53.016;-2.260;2023-08-30T01:33:29;11.20;;;3.78;;
59308;SDS011;48433;53.016;-2.260;2023-08-30T01:36:00;12.40;;;3.67;;
59308;SDS011;48433;53.016;-2.260;2023-08-30T01:38:32;8.68;;;3.47;;
59308;SDS011;48433;53.016;-2.260;2023-08-30T01:41:02;9.90;;;3.20;;
59308;SDS011;48433;53.016;-2.260;2023-08-30T01:43:31;13.98;;;3.42;;
59308;SDS011;48433;53.016;-2.260;2023-08-30T01:46:00;9.20;;;3.08;;
59308;SDS011;48433;53.016;-2.260;2023-08-30T01:48:29;10.63;;;3.30;;
59308;SDS011;48433;53.016;-2.260;2023-08-30T01:51:02;9.70;;;3.40;;
59308;SDS011;48433;53.016;-2.260;2023-08-30T01:53:30;12.95;;;3.40;;
59308;SDS011;48433;53.016;-2.260;2023-08-30T01:56:00;10.95;;;4.15;;
59308;SDS011;48433;53.016;-2.260;2023-08-30T01:58:28;10.80;;;3.75;;
59308;SDS011;48433;53.016;-2.260;2023-08-30T02:00:56;9.65;;;3.70;;
59308;SDS011;48433;53.016;-2.260;2023-08-30T02:03:24;10.85;;;3.55;;
59308;SDS011;48433;53.016;-2.260;2023-08-30T02:08:33;9.02;;;2.92;;
59308;SDS011;48433;53.016;-2.260;2023-08-30T02:11:11;10.57;;;3.40;;
59308;SDS011;48433;53.016;-2.260;2023-08-30T02:13:44;10.95;;;3.20;;
59308;SDS011;48433;53.016;-2.260;2023-08-30T02:16:13;8.35;;;3.28;;
59308;SDS011;48433;53.016;-2.260;2023-08-30T02:18:42;9.75;;;3.40;;
59308;SDS011;48433;53.016;-2.260;2023-08-30T02:21:10;11.75;;;3.72;;
59308;SDS011;48433;53.016;-2.260;2023-08-30T02:23:37;14.02;;;3.88;;
59308;SDS011;48433;53.016;-2.260;2023-08-30T02:26:05;8.60;;;3.28;;
59308;SDS011;48433;53.016;-2.260;2023-08-30T02:28:33;9.77;;;3.63;;
59308;SDS011;48433;53.016;-2.260;2023-08-30T02:31:00;10.15;;;3.20;;
59308;SDS011;48433;53.016;-2.260;2023-08-30T02:33:29;10.65;;;3.35;;
59308;SDS011;48433;53.016;-2.260;2023-08-30T02:35:56;11.02;;;3.83;;
59308;SDS011;48433;53.016;-2.260;2023-08-30T02:38:24;12.98;;;4.05;;
59308;SDS011;48433;53.016;-2.260;2023-08-30T02:40:51;14.73;;;3.60;;
59308;SDS011;48433;53.016;-2.260;2023-08-30T02:43:19;14.27;;;3.50;;
59308;SDS011;48433;53.016;-2.260;2023-08-30T02:45:46;9.77;;;3.75;;
59308;SDS011;48433;53.016;-2.260;2023-08-30T02:48:14;9.70;;;3.17;;
59308;SDS011;48433;53.016;-2.260;2023-08-30T02:50:42;10.23;;;2.92;;
59308;SDS011;48433;53.016;-2.260;2023-08-30T02:53:10;8.60;;;3.00;;
59308;SDS011;48433;53.016;-2.260;2023-08-30T02:55:37;10.27;;;2.85;;
59308;SDS011;48433;53.016;-2.260;2023-08-30T02:58:05;11.60;;;3.50;;
59308;SDS011;48433;53.016;-2.260;2023-08-30T03:00:33;11.45;;;3.47;;
59308;SDS011;48433;53.016;-2.260;2023-08-30T03:03:01;9.85;;;3.47;;
59308;SDS011;48433;53.016;-2.260;2023-08-30T03:05:29;12.88;;;3.40;;
59308;SDS011;48433;53.016;-2.260;2023-08-30T03:07:57;12.38;;;3.30;;
59308;SDS011;48433;53.016;-2.260;2023-08-30T03:10:25;10.10;;;3.45;;
59308;SDS011;48433;53.016;-2.260;2023-08-30T03:12:52;12.50;;;3.50;;
59308;SDS011;48433;53.016;-2.260;2023-08-30T03:15:20;10.02;;;3.13;;
59308;SDS011;48433;53.016;-2.260;2023-08-30T03:17:48;13.98;;;3.17;;
59308;SDS011;48433;53.016;-2.260;2023-08-30T03:20:15;11.40;;;2.90;;
59308;SDS011;48433;53.016;-2.260;2023-08-30T03:22:43;10.32;;;3.45;;
59308;SDS011;48433;53.016;-2.260;2023-08-30T03:25:11;10.10;;;3.22;;
59308;SDS011;48433;53.016;-2.260;2023-08-30T03:27:39;10.60;;;3.15;;
59308;SDS011;48433;53.016;-2.260;2023-08-30T03:30:07;10.70;;;3.25;;
59308;SDS011;48433;53.016;-2.260;2023-08-30T03:32:36;10.60;;;2.95;;
59308;SDS011;48433;53.016;-2.260;2023-08-30T03:35:04;10.27;;;3.53;;
59308;SDS011;48433;53.016;-2.260;2023-08-30T03:37:32;14.00;;;3.70;;
59308;SDS011;48433;53.016;-2.260;2023-08-30T03:40:01;15.30;;;3.63;;
59308;SDS011;48433;53.016;-2.260;2023-08-30T03:42:29;11.80;;;3.22;;
59308;SDS011;48433;53.016;-2.260;2023-08-30T03:44:56;9.40;;;3.50;;
59308;SDS011;48433;53.016;-2.260;2023-08-30T03:47:24;12.25;;;3.30;;
59308;SDS011;48433;53.016;-2.260;2023-08-30T03:49:52;10.73;;;3.85;;
59308;SDS011;48433;53.016;-2.260;2023-08-30T03:52:19;10.35;;;3.28;;
59308;SDS011;48433;53.016;-2.260;2023-08-30T03:54:47;7.78;;;2.70;;
59308;SDS011;48433;53.016;-2.260;2023-08-30T03:57:14;10.32;;;3.20;;
59308;SDS011;48433;53.016;-2.260;2023-08-30T03:59:42;11.73;;;3.00;;
59308;SDS011;48433;53.016;-2.260;2023-08-30T04:02:10;8.55;;;3.10;;
59308;SDS011;48433;53.016;-2.260;2023-08-30T04:04:37;11.32;;;3.20;;
59308;SDS011;48433;53.016;-2.260;2023-08-30T04:07:05;15.00;;;3.50;;
59308;SDS011;48433;53.016;-2.260;2023-08-30T04:09:33;7.78;;;2.72;;
59308;SDS011;48433;53.016;-2.260;2023-08-30T04:12:00;10.32;;;3.05;;
59308;SDS011;48433;53.016;-2.260;2023-08-30T04:14:28;6.32;;;2.72;;
59308;SDS011;48433;53.016;-2.260;2023-08-30T04:16:57;9.65;;;3.05;;
59308;SDS011;48433;53.016;-2.260;2023-08-30T04:19:24;9.68;;;2.95;;
59308;SDS011;48433;53.016;-2.260;2023-08-30T04:21:52;10.38;;;3.20;;
59308;SDS011;48433;53.016;-2.260;2023-08-30T04:24:20;9.50;;;3.55;;
59308;SDS011;48433;53.016;-2.260;2023-08-30T04:26:47;9.02;;;2.95;;
59308;SDS011;48433;53.016;-2.260;2023-08-30T04:29:18;8.00;;;3.10;;
59308;SDS011;48433;53.016;-2.260;2023-08-30T04:31:46;8.23;;;3.13;;
59308;SDS011;48433;53.016;-2.260;2023-08-30T04:34:13;10.15;;;3.03;;
59308;SDS011;48433;53.016;-2.260;2023-08-30T04:36:43;8.63;;;3.58;;
59308;SDS011;48433;53.016;-2.260;2023-08-30T04:39:13;9.43;;;3.03;;
59308;SDS011;48433;53.016;-2.260;2023-08-30T04:41:41;9.93;;;3.55;;
59308;SDS011;48433;53.016;-2.260;2023-08-30T04:44:09;10.32;;;3.40;;
59308;SDS011;48433;53.016;-2.260;2023-08-30T04:46:36;9.48;;;3.38;;
59308;SDS011;48433;53.016;-2.260;2023-08-30T04:49:04;12.40;;;3.42;;
59308;SDS011;48433;53.016;-2.260;2023-08-30T04:51:32;6.63;;;2.88;;
59308;SDS011;48433;53.016;-2.260;2023-08-30T04:54:00;9.02;;;4.07;;
59308;SDS011;48433;53.016;-2.260;2023-08-30T04:56:28;8.60;;;3.08;;
59308;SDS011;48433;53.016;-2.260;2023-08-30T04:58:56;8.63;;;3.10;;
59308;SDS011;48433;53.016;-2.260;2023-08-30T05:01:24;7.90;;;3.10;;
59308;SDS011;48433;53.016;-2.260;2023-08-30T05:03:55;11.48;;;4.20;;
59308;SDS011;48433;53.016;-2.260;2023-08-30T05:06:24;8.98;;;3.60;;
59308;SDS011;48433;53.016;-2.260;2023-08-30T05:08:51;17.20;;;4.60;;
59308;SDS011;48433;53.016;-2.260;2023-08-30T05:11:19;10.98;;;3.92;;
59308;SDS011;48433;53.016;-2.260;2023-08-30T05:13:47;11.68;;;3.47;;
59308;SDS011;48433;53.016;-2.260;2023-08-30T05:16:14;10.88;;;3.55;;
59308;SDS011;48433;53.016;-2.260;2023-08-30T05:18:42;11.85;;;3.67;;
59308;SDS011;48433;53.016;-2.260;2023-08-30T05:21:09;7.32;;;3.55;;
59308;SDS011;48433;53.016;-2.260;2023-08-30T05:23:37;9.50;;;3.45;;
59308;SDS011;48433;53.016;-2.260;2023-08-30T05:26:08;15.90;;;4.32;;
59308;SDS011;48433;53.016;-2.260;2023-08-30T05:28:36;8.02;;;3.55;;
59308;SDS011;48433;53.016;-2.260;2023-08-30T05:31:06;9.80;;;3.28;;
59308;SDS011;48433;53.016;-2.260;2023-08-30T05:33:53;8.75;;;3.97;;
59308;SDS011;48433;53.016;-2.260;2023-08-30T05:36:44;12.23;;;3.72;;
59308;SDS011;48433;53.016;-2.260;2023-08-30T05:39:21;9.57;;;3.40;;
59308;SDS011;48433;53.016;-2.260;2023-08-30T05:41:55;13.65;;;3.83;;
59308;SDS011;48433;53.016;-2.260;2023-08-30T05:44:23;11.95;;;4.35;;
59308;SDS011;48433;53.016;-2.260;2023-08-30T05:46:51;8.68;;;3.38;;
59308;SDS011;48433;53.016;-2.260;2023-08-30T05:49:19;8.02;;;3.30;;
59308;SDS011;48433;53.016;-2.260;2023-08-30T05:51:46;9.77;;;3.67;;
59308;SDS011;48433;53.016;-2.260;2023-08-30T05:54:14;9.32;;;3.40;;
59308;SDS011;48433;53.016;-2.260;2023-08-30T05:56:42;9.40;;;3.67;;
59308;SDS011;48433;53.016;-2.260;2023-08-30T05:59:09;10.35;;;3.70;;
59308;SDS011;48433;53.016;-2.260;2023-08-30T06:01:37;6.38;;;2.88;;
59308;SDS011;48433;53.016;-2.260;2023-08-30T06:04:05;8.73;;;3.50;;
59308;SDS011;48433;53.016;-2.260;2023-08-30T06:06:32;9.18;;;3.30;;
59308;SDS011;48433;53.016;-2.260;2023-08-30T06:09:00;5.65;;;3.00;;
59308;SDS011;48433;53.016;-2.260;2023-08-30T06:11:27;7.10;;;3.03;;
59308;SDS011;48433;53.016;-2.260;2023-08-30T06:13:55;12.38;;;3.78;;
59308;SDS011;48433;53.016;-2.260;2023-08-30T06:16:26;8.88;;;3.20;;
59308;SDS011;48433;53.016;-2.260;2023-08-30T06:18:53;8.50;;;3.33;;
59308;SDS011;48433;53.016;-2.260;2023-08-30T06:21:21;6.22;;;2.95;;
59308;SDS011;48433;53.016;-2.260;2023-08-30T06:23:48;7.65;;;3.03;;
59308;SDS011;48433;53.016;-2.260;2023-08-30T06:26:17;7.93;;;2.80;;
59308;SDS011;48433;53.016;-2.260;2023-08-30T06:28:45;8.60;;;2.92;;
59308;SDS011;48433;53.016;-2.260;2023-08-30T06:31:25;10.50;;;3.10;;
59308;SDS011;48433;53.016;-2.260;2023-08-30T06:33:53;7.15;;;3.00;;
59308;SDS011;48433;53.016;-2.260;2023-08-30T06:36:21;6.63;;;2.90;;
59308;SDS011;48433;53.016;-2.260;2023-08-30T06:38:50;10.13;;;3.53;;
59308;SDS011;48433;53.016;-2.260;2023-08-30T06:41:17;8.80;;;2.75;;
59308;SDS011;48433;53.016;-2.260;2023-08-30T06:43:45;11.82;;;3.20;;
59308;SDS011;48433;53.016;-2.260;2023-08-30T06:46:13;7.22;;;2.67;;
59308;SDS011;48433;53.016;-2.260;2023-08-30T06:48:41;9.07;;;2.58;;
59308;SDS011;48433;53.016;-2.260;2023-08-30T06:51:08;7.15;;;2.90;;
59308;SDS011;48433;53.016;-2.260;2023-08-30T06:53:37;7.65;;;2.40;;
59308;SDS011;48433;53.016;-2.260;2023-08-30T06:56:05;5.50;;;2.35;;
59308;SDS011;48433;53.016;-2.260;2023-08-30T06:58:33;7.10;;;2.78;;
59308;SDS011;48433;53.016;-2.260;2023-08-30T07:01:00;7.28;;;2.75;;
59308;SDS011;48433;53.016;-2.260;2023-08-30T07:03:30;8.02;;;2.67;;
59308;SDS011;48433;53.016;-2.260;2023-08-30T07:05:58;8.15;;;2.60;;
59308;SDS011;48433;53.016;-2.260;2023-08-30T07:08:25;7.10;;;2.70;;
59308;SDS011;48433;53.016;-2.260;2023-08-30T07:10:53;9.23;;;2.55;;
59308;SDS011;48433;53.016;-2.260;2023-08-30T07:13:21;5.80;;;2.50;;
59308;SDS011;48433;53.016;-2.260;2023-08-30T07:15:49;8.68;;;3.00;;
59308;SDS011;48433;53.016;-2.260;2023-08-30T07:18:16;8.30;;;2.85;;
59308;SDS011;48433;53.016;-2.260;2023-08-30T07:20:44;8.20;;;2.95;;
59308;SDS011;48433;53.016;-2.260;2023-08-30T07:23:11;8.82;;;3.00;;
59308;SDS011;48433;53.016;-2.260;2023-08-30T07:25:39;8.55;;;3.47;;
59308;SDS011;48433;53.016;-2.260;2023-08-30T07:28:07;11.80;;;3.55;;
59308;SDS011;48433;53.016;-2.260;2023-08-30T07:30:36;6.57;;;2.55;;
59308;SDS011;48433;53.016;-2.260;2023-08-30T07:33:06;12.15;;;3.33;;
59308;SDS011;48433;53.016;-2.260;2023-08-30T07:35:34;8.80;;;2.97;;
59308;SDS011;48433;53.016;-2.260;2023-08-30T07:38:02;11.30;;;3.50;;
59308;SDS011;48433;53.016;-2.260;2023-08-30T07:40:30;10.93;;;2.95;;
59308;SDS011;48433;53.016;-2.260;2023-08-30T07:42:58;10.85;;;3.67;;
59308;SDS011;48433;53.016;-2.260;2023-08-30T07:45:30;13.88;;;3.67;;
59308;SDS011;48433;53.016;-2.260;2023-08-30T07:47:58;12.25;;;3.45;;
59308;SDS011;48433;53.016;-2.260;2023-08-30T07:50:25;10.65;;;2.53;;
59308;SDS011;48433;53.016;-2.260;2023-08-30T07:52:53;9.60;;;2.60;;
59308;SDS011;48433;53.016;-2.260;2023-08-30T07:55:20;10.40;;;2.70;;
59308;SDS011;48433;53.016;-2.260;2023-08-30T07:57:48;12.18;;;3.97;;
59308;SDS011;48433;53.016;-2.260;2023-08-30T08:00:16;12.23;;;3.13;;
59308;SDS011;48433;53.016;-2.260;2023-08-30T08:02:44;11.00;;;4.22;;
59308;SDS011;48433;53.016;-2.260;2023-08-30T08:05:12;13.88;;;3.60;;
59308;SDS011;48433;53.016;-2.260;2023-08-30T08:07:41;14.57;;;3.95;;
59308;SDS011;48433;53.016;-2.260;2023-08-30T08:10:10;12.98;;;3.05;;
59308;SDS011;48433;53.016;-2.260;2023-08-30T08:12:37;11.70;;;3.25;;
59308;SDS011;48433;53.016;-2.260;2023-08-30T08:15:06;19.13;;;3.63;;
59308;SDS011;48433;53.016;-2.260;2023-08-30T08:17:34;11.63;;;3.35;;
59308;SDS011;48433;53.016;-2.260;2023-08-30T08:20:04;11.82;;;2.95;;
59308;SDS011;48433;53.016;-2.260;2023-08-30T08:22:33;15.07;;;3.90;;
59308;SDS011;48433;53.016;-2.260;2023-08-30T08:25:01;7.00;;;2.70;;
59308;SDS011;48433;53.016;-2.260;2023-08-30T08:27:29;10.30;;;2.80;;
59308;SDS011;48433;53.016;-2.260;2023-08-30T08:29:57;14.55;;;3.45;;
59308;SDS011;48433;53.016;-2.260;2023-08-30T08:32:25;10.82;;;3.58;;
59308;SDS011;48433;53.016;-2.260;2023-08-30T08:34:52;14.02;;;2.95;;
59308;SDS011;48433;53.016;-2.260;2023-08-30T08:37:20;12.80;;;2.88;;
59308;SDS011;48433;53.016;-2.260;2023-08-30T08:39:48;29.75;;;4.00;;
59308;SDS011;48433;53.016;-2.260;2023-08-30T08:42:19;12.38;;;3.08;;
59308;SDS011;48433;53.016;-2.260;2023-08-30T08:44:47;8.60;;;2.88;;
59308;SDS011;48433;53.016;-2.260;2023-08-30T08:47:19;10.15;;;3.60;;
59308;SDS011;48433;53.016;-2.260;2023-08-30T08:49:47;11.25;;;3.13;;
59308;SDS011;48433;53.016;-2.260;2023-08-30T08:52:16;9.48;;;3.47;;
59308;SDS011;48433;53.016;-2.260;2023-08-30T08:54:57;12.07;;;3.13;;
59308;SDS011;48433;53.016;-2.260;2023-08-30T08:57:28;13.65;;;3.13;;
59308;SDS011;48433;53.016;-2.260;2023-08-30T08:59:58;10.02;;;2.80;;
59308;SDS011;48433;53.016;-2.260;2023-08-30T09:02:26;9.73;;;2.97;;
59308;SDS011;48433;53.016;-2.260;2023-08-30T09:04:56;8.00;;;2.95;;
59308;SDS011;48433;53.016;-2.260;2023-08-30T09:07:26;11.40;;;3.20;;
59308;SDS011;48433;53.016;-2.260;2023-08-30T09:12:24;9.85;;;3.08;;
59308;SDS011;48433;53.016;-2.260;2023-08-30T09:14:53;10.43;;;3.25;;
59308;SDS011;48433;53.016;-2.260;2023-08-30T09:17:22;12.15;;;3.45;;
59308;SDS011;48433;53.016;-2.260;2023-08-30T09:19:50;11.23;;;3.05;;
59308;SDS011;48433;53.016;-2.260;2023-08-30T09:22:18;7.07;;;2.50;;
59308;SDS011;48433;53.016;-2.260;2023-08-30T09:24:45;9.15;;;2.88;;
59308;SDS011;48433;53.016;-2.260;2023-08-30T09:27:13;9.43;;;3.13;;
59308;SDS011;48433;53.016;-2.260;2023-08-30T09:29:41;10.25;;;3.25;;
59308;SDS011;48433;53.016;-2.260;2023-08-30T09:32:12;9.90;;;3.45;;
59308;SDS011;48433;53.016;-2.260;2023-08-30T09:34:45;6.60;;;2.70;;
59308;SDS011;48433;53.016;-2.260;2023-08-30T09:37:23;9.55;;;2.97;;
59308;SDS011;48433;53.016;-2.260;2023-08-30T09:39:51;9.77;;;2.90;;
59308;SDS011;48433;53.016;-2.260;2023-08-30T09:42:18;11.25;;;4.13;;
59308;SDS011;48433;53.016;-2.260;2023-08-30T09:44:46;10.68;;;3.05;;
59308;SDS011;48433;53.016;-2.260;2023-08-30T09:47:15;7.68;;;2.65;;
59308;SDS011;48433;53.016;-2.260;2023-08-30T09:49:44;6.93;;;2.63;;
59308;SDS011;48433;53.016;-2.260;2023-08-30T09:52:16;9.85;;;3.08;;
59308;SDS011;48433;53.016;-2.260;2023-08-30T09:54:44;7.18;;;3.03;;
59308;SDS011;48433;53.016;-2.260;2023-08-30T09:57:13;12.85;;;3.30;;
59308;SDS011;48433;53.016;-2.260;2023-08-30T09:59:41;7.65;;;2.63;;
59308;SDS011;48433;53.016;-2.260;2023-08-30T10:02:10;9.02;;;3.13;;
59308;SDS011;48433;53.016;-2.260;2023-08-30T10:04:38;8.45;;;2.80;;
59308;SDS011;48433;53.016;-2.260;2023-08-30T10:07:09;8.18;;;2.72;;
59308;SDS011;48433;53.016;-2.260;2023-08-30T10:09:37;11.73;;;3.17;;
59308;SDS011;48433;53.016;-2.260;2023-08-30T10:12:21;9.00;;;3.17;;
59308;SDS011;48433;53.016;-2.260;2023-08-30T10:14:50;15.02;;;4.40;;
59308;SDS011;48433;53.016;-2.260;2023-08-30T10:17:18;8.85;;;2.83;;
59308;SDS011;48433;53.016;-2.260;2023-08-30T10:19:47;10.85;;;3.08;;
59308;SDS011;48433;53.016;-2.260;2023-08-30T10:22:17;9.15;;;3.05;;
59308;SDS011;48433;53.016;-2.260;2023-08-30T10:30:08;9.27;;;2.90;;
59308;SDS011;48433;53.016;-2.260;2023-08-30T10:32:40;9.65;;;2.90;;
59308;SDS011;48433;53.016;-2.260;2023-08-30T10:40:08;8.55;;;2.97;;
59308;SDS011;48433;53.016;-2.260;2023-08-30T10:42:37;10.00;;;3.25;;
59308;SDS011;48433;53.016;-2.260;2023-08-30T10:45:05;8.82;;;2.58;;
59308;SDS011;48433;53.016;-2.260;2023-08-30T10:47:37;8.93;;;2.42;;
59308;SDS011;48433;53.016;-2.260;2023-08-30T10:50:07;12.43;;;3.05;;
59308;SDS011;48433;53.016;-2.260;2023-08-30T10:52:37;9.40;;;2.63;;
59308;SDS011;48433;53.016;-2.260;2023-08-30T10:55:09;9.55;;;2.50;;
59308;SDS011;48433;53.016;-2.260;2023-08-30T10:57:41;11.40;;;2.80;;
59308;SDS011;48433;53.016;-2.260;2023-08-30T11:02:45;10.88;;;2.97;;
59308;SDS011;48433;53.016;-2.260;2023-08-30T11:05:16;8.65;;;2.40;;
59308;SDS011;48433;53.016;-2.260;2023-08-30T11:07:44;4.95;;;1.88;;
59308;SDS011;48433;53.016;-2.260;2023-08-30T11:10:13;6.50;;;2.20;;
59308;SDS011;48433;53.016;-2.260;2023-08-30T11:12:41;4.80;;;1.95;;
59308;SDS011;48433;53.016;-2.260;2023-08-30T11:15:10;7.15;;;2.05;;
59308;SDS011;48433;53.016;-2.260;2023-08-30T11:17:40;5.15;;;2.15;;
59308;SDS011;48433;53.016;-2.260;2023-08-30T11:20:10;6.90;;;2.03;;
59308;SDS011;48433;53.016;-2.260;2023-08-30T11:22:41;7.35;;;2.33;;
59308;SDS011;48433;53.016;-2.260;2023-08-30T11:25:11;6.88;;;2.33;;
59308;SDS011;48433;53.016;-2.260;2023-08-30T11:27:40;5.75;;;2.00;;
59308;SDS011;48433;53.016;-2.260;2023-08-30T11:30:09;8.38;;;2.00;;
59308;SDS011;48433;53.016;-2.260;2023-08-30T11:32:41;5.85;;;1.80;;
59308;SDS011;48433;53.016;-2.260;2023-08-30T11:35:10;7.57;;;2.10;;
59308;SDS011;48433;53.016;-2.260;2023-08-30T11:37:39;8.27;;;2.40;;
59308;SDS011;48433;53.016;-2.260;2023-08-30T11:40:08;9.50;;;2.05;;
59308;SDS011;48433;53.016;-2.260;2023-08-30T11:42:38;8.83;;;2.37;;
59308;SDS011;48433;53.016;-2.260;2023-08-30T11:45:07;8.57;;;2.22;;
59308;SDS011;48433;53.016;-2.260;2023-08-30T11:47:36;6.93;;;2.45;;
59308;SDS011;48433;53.016;-2.260;2023-08-30T11:50:04;5.45;;;1.73;;
59308;SDS011;48433;53.016;-2.260;2023-08-30T11:52:33;6.30;;;2.00;;
59308;SDS011;48433;53.016;-2.260;2023-08-30T11:55:03;6.35;;;2.03;;
59308;SDS011;48433;53.016;-2.260;2023-08-30T11:57:35;6.70;;;1.73;;
59308;SDS011;48433;53.016;-2.260;2023-08-30T12:00:07;7.18;;;1.95;;
59308;SDS011;48433;53.016;-2.260;2023-08-30T12:02:38;4.15;;;1.40;;
59308;SDS011;48433;53.016;-2.260;2023-08-30T12:05:10;4.25;;;1.40;;
59308;SDS011;48433;53.016;-2.260;2023-08-30T12:07:39;4.97;;;1.90;;
59308;SDS011;48433;53.016;-2.260;2023-08-30T12:10:08;5.00;;;1.88;;
59308;SDS011;48433;53.016;-2.260;2023-08-30T12:12:37;5.45;;;1.60;;
59308;SDS011;48433;53.016;-2.260;2023-08-30T12:15:08;6.38;;;1.70;;
59308;SDS011;48433;53.016;-2.260;2023-08-30T12:17:37;5.97;;;2.15;;
59308;SDS011;48433;53.016;-2.260;2023-08-30T12:20:04;6.47;;;2.20;;
59308;SDS011;48433;53.016;-2.260;2023-08-30T12:22:39;7.03;;;2.08;;
59308;SDS011;48433;53.016;-2.260;2023-08-30T12:25:16;5.80;;;1.80;;
59308;SDS011;48433;53.016;-2.260;2023-08-30T12:27:47;5.95;;;2.38;;
59308;SDS011;48433;53.016;-2.260;2023-08-30T12:30:15;5.75;;;1.90;;
59308;SDS011;48433;53.016;-2.260;2023-08-30T12:32:44;4.85;;;1.77;;
59308;SDS011;48433;53.016;-2.260;2023-08-30T12:35:12;8.68;;;1.95;;
59308;SDS011;48433;53.016;-2.260;2023-08-30T12:37:40;4.20;;;1.65;;
59308;SDS011;48433;53.016;-2.260;2023-08-30T12:40:08;5.13;;;1.85;;
59308;SDS011;48433;53.016;-2.260;2023-08-30T12:42:36;6.75;;;2.40;;
59308;SDS011;48433;53.016;-2.260;2023-08-30T12:45:04;8.02;;;1.70;;
59308;SDS011;48433;53.016;-2.260;2023-08-30T12:47:32;5.65;;;2.08;;
59308;SDS011;48433;53.016;-2.260;2023-08-30T12:50:00;6.82;;;1.83;;
59308;SDS011;48433;53.016;-2.260;2023-08-30T12:52:28;6.85;;;1.85;;
59308;SDS011;48433;53.016;-2.260;2023-08-30T12:54:56;8.13;;;2.30;;
59308;SDS011;48433;53.016;-2.260;2023-08-30T12:57:24;9.80;;;2.10;;
59308;SDS011;48433;53.016;-2.260;2023-08-30T12:59:53;5.95;;;1.70;;
59308;SDS011;48433;53.016;-2.260;2023-08-30T13:02:21;7.40;;;2.30;;
59308;SDS011;48433;53.016;-2.260;2023-08-30T13:04:49;9.77;;;2.55;;
59308;SDS011;48433;53.016;-2.260;2023-08-30T13:07:16;7.50;;;2.35;;
59308;SDS011;48433;53.016;-2.260;2023-08-30T13:09:44;6.97;;;1.95;;
59308;SDS011;48433;53.016;-2.260;2023-08-30T13:12:12;6.60;;;1.80;;
59308;SDS011;48433;53.016;-2.260;2023-08-30T13:14:40;5.13;;;2.10;;
59308;SDS011;48433;53.016;-2.260;2023-08-30T13:17:07;6.93;;;2.53;;
59308;SDS011;48433;53.016;-2.260;2023-08-30T13:19:35;7.00;;;2.10;;
59308;SDS011;48433;53.016;-2.260;2023-08-30T13:22:06;9.18;;;2.33;;
59308;SDS011;48433;53.016;-2.260;2023-08-30T13:24:34;8.75;;;2.30;;
59308;SDS011;48433;53.016;-2.260;2023-08-30T13:27:02;13.85;;;3.72;;
59308;SDS011;48433;53.016;-2.260;2023-08-30T13:29:30;4.63;;;1.95;;
59308;SDS011;48433;53.016;-2.260;2023-08-30T13:31:57;8.88;;;2.20;;
59308;SDS011;48433;53.016;-2.260;2023-08-30T13:34:25;9.50;;;1.90;;
59308;SDS011;48433;53.016;-2.260;2023-08-30T13:36:53;7.28;;;2.25;;
59308;SDS011;48433;53.016;-2.260;2023-08-30T13:39:20;7.82;;;2.03;;
59308;SDS011;48433;53.016;-2.260;2023-08-30T13:41:49;8.77;;;2.08;;
59308;SDS011;48433;53.016;-2.260;2023-08-30T13:44:16;5.35;;;2.13;;
59308;SDS011;48433;53.016;-2.260;2023-08-30T13:46:44;11.25;;;2.45;;
59308;SDS011;48433;53.016;-2.260;2023-08-30T13:49:15;8.98;;;2.55;;
59308;SDS011;48433;53.016;-2.260;2023-08-30T13:51:43;6.93;;;2.22;;
59308;SDS011;48433;53.016;-2.260;2023-08-30T13:54:12;8.95;;;1.92;;
59308;SDS011;48433;53.016;-2.260;2023-08-30T13:56:40;5.32;;;2.00;;
59308;SDS011;48433;53.016;-2.260;2023-08-30T13:59:11;7.40;;;1.98;;
59308;SDS011;48433;53.016;-2.260;2023-08-30T14:01:39;7.60;;;2.20;;
59308;SDS011;48433;53.016;-2.260;2023-08-30T14:04:08;7.18;;;2.70;;
59308;SDS011;48433;53.016;-2.260;2023-08-30T14:06:36;6.70;;;3.13;;
59308;SDS011;48433;53.016;-2.260;2023-08-30T14:09:04;9.88;;;2.70;;
59308;SDS011;48433;53.016;-2.260;2023-08-30T14:11:33;9.65;;;2.55;;
59308;SDS011;48433;53.016;-2.260;2023-08-30T14:14:02;8.57;;;2.40;;
59308;SDS011;48433;53.016;-2.260;2023-08-30T14:16:30;7.82;;;2.80;;
59308;SDS011;48433;53.016;-2.260;2023-08-30T14:18:58;7.10;;;2.40;;
59308;SDS011;48433;53.016;-2.260;2023-08-30T14:21:27;7.35;;;2.50;;
59308;SDS011;48433;53.016;-2.260;2023-08-30T14:23:54;8.57;;;2.67;;
59308;SDS011;48433;53.016;-2.260;2023-08-30T14:26:22;11.88;;;2.78;;
59308;SDS011;48433;53.016;-2.260;2023-08-30T14:28:50;6.88;;;2.13;;
59308;SDS011;48433;53.016;-2.260;2023-08-30T14:31:17;7.63;;;2.05;;
59308;SDS011;48433;53.016;-2.260;2023-08-30T14:33:45;5.88;;;2.15;;
59308;SDS011;48433;53.016;-2.260;2023-08-30T14:36:13;6.13;;;2.08;;
59308;SDS011;48433;53.016;-2.260;2023-08-30T14:38:43;6.97;;;2.28;;
59308;SDS011;48433;53.016;-2.260;2023-08-30T14:41:11;10.50;;;2.50;;
59308;SDS011;48433;53.016;-2.260;2023-08-30T14:43:40;5.32;;;2.28;;
59308;SDS011;48433;53.016;-2.260;2023-08-30T14:46:07;7.85;;;2.65;;
59308;SDS011;48433;53.016;-2.260;2023-08-30T14:48:40;9.68;;;3.17;;
59308;SDS011;48433;53.016;-2.260;2023-08-30T14:51:08;9.68;;;3.17;;
59308;SDS011;48433;53.016;-2.260;2023-08-30T14:53:36;11.60;;;2.80;;
59308;SDS011;48433;53.016;-2.260;2023-08-30T14:56:04;8.05;;;2.40;;
59308;SDS011;48433;53.016;-2.260;2023-08-30T14:58:34;13.13;;;3.03;;
59308;SDS011;48433;53.016;-2.260;2023-08-30T15:01:03;9.88;;;2.60;;